createdAt,value
2022-08-17T00:03:14.656Z,23.22
2022-08-17T00:08:20.611Z,23.05
2022-08-17T00:13:33.524Z,22.71
2022-08-17T00:19:06.744Z,22.38
2022-08-17T00:23:57.806Z,22.39
2022-08-17T00:29:00.098Z,22.27
2022-08-17T00:34:03.257Z,22.30
2022-08-17T00:39:05.346Z,22.24
2022-08-17T00:44:08.226Z,22.16
2022-08-17T00:49:11.866Z,21.74
2022-08-17T00:54:23.024Z,21.49
2022-08-17T00:59:30.560Z,21.68
2022-08-17T01:04:33.164Z,22.22
2022-08-17T01:09:35.300Z,22.55
2022-08-17T01:14:38.847Z,22.70
2022-08-17T01:19:41.776Z,22.86
2022-08-17T01:24:59.373Z,22.99
2022-08-17T01:30:06.686Z,22.53
2022-08-17T01:35:29.546Z,22.26
2022-08-17T01:40:38.654Z,22.09
2022-08-17T01:45:45.309Z,21.53
2022-08-17T01:50:49.605Z,21.60
2022-08-17T01:55:54.814Z,21.61
2022-08-17T02:01:01.043Z,21.57
2022-08-17T02:06:05.782Z,21.43
2022-08-17T02:11:28.135Z,21.15
2022-08-17T02:16:37.889Z,21.22
2022-08-17T02:21:42.084Z,21.17
2022-08-17T02:26:46.404Z,21.36
2022-08-17T02:31:48.405Z,21.39
2022-08-17T02:36:52.576Z,21.48
2022-08-17T02:42:02.391Z,21.65
2022-08-17T02:47:04.616Z,21.79
2022-08-17T02:52:07.410Z,21.81
2022-08-17T02:57:10.596Z,21.85
2022-08-17T03:02:12.495Z,22.03
2022-08-17T03:07:15.603Z,22.10
2022-08-17T03:12:17.550Z,22.11
2022-08-17T03:17:19.420Z,22.13
2022-08-17T03:22:36.600Z,22.19
2022-08-17T03:27:41.991Z,22.24
2022-08-17T03:32:47.348Z,22.20
2022-08-17T03:38:00.383Z,22.06
2022-08-17T03:43:08.565Z,22.01
2022-08-17T03:48:29.139Z,22.08
2022-08-17T03:53:49.709Z,22.05
2022-08-17T03:58:51.529Z,22.04
2022-08-17T04:03:53.445Z,22.10
2022-08-17T04:08:55.711Z,22.25
2022-08-17T04:13:57.514Z,22.39
2022-08-17T04:18:59.711Z,22.49
2022-08-17T04:24:02.235Z,22.96
2022-08-17T04:29:04.849Z,24.24
2022-08-17T04:34:06.816Z,25.59
2022-08-17T04:39:08.638Z,26.20
2022-08-17T04:44:11.843Z,26.04
2022-08-17T04:49:13.778Z,26.41
2022-08-17T04:54:20.124Z,26.80
2022-08-17T04:59:22.380Z,25.77
2022-08-17T05:04:33.950Z,25.07
2022-08-17T05:09:40.758Z,25.61
2022-08-17T05:14:42.810Z,25.99
2022-08-17T05:19:51.757Z,26.65
2022-08-17T05:25:07.702Z,26.53
2022-08-17T05:30:25.334Z,26.16
2022-08-17T05:35:43.673Z,25.86
2022-08-17T05:40:56.463Z,25.89
2022-08-17T05:46:22.450Z,26.09
2022-08-17T05:51:38.807Z,25.93
2022-08-17T05:57:03.822Z,25.87
2022-08-17T06:02:26.770Z,26.01
2022-08-17T06:07:44.869Z,25.84
2022-08-17T06:13:05.503Z,26.10
2022-08-17T06:18:09.795Z,26.38
2022-08-17T06:23:17.745Z,26.34
2022-08-17T06:28:34.062Z,26.41
2022-08-17T06:33:37.759Z,26.70
2022-08-17T06:38:53.199Z,27.13
2022-08-17T06:44:02.185Z,27.33
2022-08-17T06:49:25.535Z,27.40
2022-08-17T06:54:38.283Z,27.24
2022-08-17T06:59:55.362Z,27.42
2022-08-17T07:05:01.431Z,27.42
2022-08-17T07:10:03.811Z,27.45
2022-08-17T07:15:13.285Z,27.55
2022-08-17T07:20:20.218Z,27.20
2022-08-17T07:25:22.665Z,27.07
2022-08-17T07:30:26.227Z,27.54
2022-08-17T07:35:44.269Z,28.00
2022-08-17T07:41:06.031Z,27.82
2022-08-17T07:46:29.632Z,27.49
2022-08-17T07:51:35.285Z,27.33
2022-08-17T07:56:47.773Z,27.54
2022-08-17T08:02:03.682Z,28.26
2022-08-17T08:07:29.967Z,28.13
2022-08-17T08:12:46.487Z,28.02
2022-08-17T08:17:53.996Z,28.16
2022-08-17T08:23:10.287Z,28.31
2022-08-17T08:28:27.054Z,28.51
2022-08-17T08:33:49.299Z,28.74
2022-08-17T08:39:03.666Z,28.85
2022-08-17T08:44:21.766Z,28.99
2022-08-17T08:50:06.948Z,29.09
2022-08-17T08:55:36.373Z,29.26
2022-08-17T09:00:43.780Z,29.49
2022-08-17T09:05:48.818Z,29.57
2022-08-17T09:11:05.254Z,29.67
2022-08-17T09:16:29.297Z,29.77
2022-08-17T09:21:52.342Z,29.89
2022-08-17T09:27:06.276Z,30.04
2022-08-17T09:32:37.856Z,30.13
2022-08-17T09:38:13.281Z,30.26
2022-08-17T09:43:46.602Z,30.42
2022-08-17T09:49:14.632Z,30.59
2022-08-17T09:54:45.592Z,30.75
2022-08-17T10:00:08.018Z,30.91
2022-08-17T10:05:32.510Z,31.08
2022-08-17T10:10:56.683Z,31.33
2022-08-17T10:16:24.008Z,31.49
2022-08-17T10:21:45.534Z,31.67
2022-08-17T10:26:56.364Z,31.83
2022-08-17T10:32:04.613Z,31.98
2022-08-17T10:37:21.979Z,32.18
2022-08-17T10:42:37.397Z,32.45
2022-08-17T10:48:06.046Z,32.55
2022-08-17T10:53:28.188Z,32.83
2022-08-17T10:58:56.400Z,33.13
2022-08-17T11:04:19.375Z,33.48
2022-08-17T11:09:59.655Z,33.84
2022-08-17T11:15:01.796Z,34.15
2022-08-17T11:20:11.110Z,34.26
2022-08-17T11:25:22.264Z,34.22
2022-08-17T11:31:08.859Z,34.14
2022-08-17T11:36:33.908Z,33.88
2022-08-17T11:41:48.462Z,33.71
2022-08-17T11:47:37.409Z,33.62
2022-08-17T11:52:41.011Z,33.65
2022-08-17T11:57:59.533Z,33.90
2022-08-17T12:03:22.544Z,34.04
2022-08-17T12:08:27.489Z,33.79
2022-08-17T12:13:38.565Z,33.62
2022-08-17T12:18:49.691Z,33.68
2022-08-17T12:24:14.227Z,33.80
2022-08-17T12:29:35.981Z,33.95
2022-08-17T12:34:42.294Z,34.04
2022-08-17T12:39:57.157Z,34.05
2022-08-17T12:44:59.185Z,33.84
2022-08-17T12:50:29.596Z,33.55
2022-08-17T12:55:37.355Z,33.43
2022-08-17T13:00:40.939Z,33.28
2022-08-17T13:06:07.552Z,33.20
2022-08-17T13:11:23.822Z,33.14
2022-08-17T13:16:30.042Z,32.96
2022-08-17T13:21:33.635Z,32.90
2022-08-17T13:26:56.886Z,32.80
2022-08-17T13:32:13.200Z,32.78
2022-08-17T13:37:28.575Z,32.89
2022-08-17T13:42:50.374Z,32.89
2022-08-17T13:48:19.967Z,32.87
2022-08-17T13:53:44.786Z,32.85
2022-08-17T13:59:52.577Z,32.93
2022-08-17T14:04:46.445Z,32.94
2022-08-17T14:09:51.575Z,32.87
2022-08-17T14:14:55.878Z,32.86
2022-08-17T14:19:58.726Z,32.81
2022-08-17T14:25:03.926Z,32.86
2022-08-17T14:30:07.707Z,32.86
2022-08-17T14:35:12.297Z,32.83
2022-08-17T14:40:16.116Z,32.88
2022-08-17T14:45:29.607Z,32.92
2022-08-17T14:50:43.038Z,32.98
2022-08-17T14:55:45.585Z,33.03
2022-08-17T15:00:53.447Z,32.94
2022-08-17T15:05:55.791Z,32.86
2022-08-17T15:10:58.267Z,32.87
2022-08-17T15:16:00.345Z,32.85
2022-08-17T15:21:04.610Z,32.82
2022-08-17T15:26:07.244Z,32.93
2022-08-17T15:31:09.356Z,33.00
2022-08-17T15:36:11.388Z,33.00
2022-08-17T15:41:17.856Z,32.98
2022-08-17T15:46:22.943Z,32.69
2022-08-17T15:51:39.541Z,32.61
2022-08-17T15:56:41.600Z,32.62
2022-08-17T16:02:29.903Z,32.64
2022-08-17T16:07:06.750Z,32.66
2022-08-17T16:12:34.095Z,32.67
2022-08-17T16:17:40.310Z,32.71
2022-08-17T16:22:45.464Z,32.67
2022-08-17T16:27:50.038Z,32.52
2022-08-17T16:33:00.706Z,32.26
2022-08-17T16:38:10.079Z,31.89
2022-08-17T16:43:14.255Z,31.49
2022-08-17T16:48:16.693Z,31.17
2022-08-17T16:53:18.949Z,30.96
2022-08-17T16:58:21.275Z,30.77
2022-08-17T17:03:26.117Z,30.93
2022-08-17T17:08:38.449Z,31.46
2022-08-17T17:13:54.546Z,31.67
2022-08-17T17:19:11.527Z,31.60
2022-08-17T17:24:18.505Z,31.30
2022-08-17T17:29:47.906Z,30.89
2022-08-17T17:34:55.721Z,30.32
2022-08-17T17:40:09.054Z,29.78
2022-08-17T17:45:31.871Z,29.18
2022-08-17T17:51:03.270Z,28.55
2022-08-17T17:56:44.182Z,27.91
2022-08-17T18:02:02.562Z,27.31
2022-08-17T18:07:23.060Z,26.85
2022-08-17T18:12:35.366Z,26.64
2022-08-17T18:18:30.760Z,27.37
2022-08-17T18:23:39.632Z,27.15
2022-08-17T18:28:53.919Z,26.50
2022-08-17T18:34:43.865Z,26.12
2022-08-17T18:39:46.981Z,25.89
2022-08-17T18:44:54.341Z,25.67
2022-08-17T18:50:20.503Z,25.42
2022-08-17T18:55:30.473Z,25.81
2022-08-17T19:00:45.353Z,26.41
2022-08-17T19:06:24.542Z,26.59
2022-08-17T19:11:32.742Z,25.82
2022-08-17T19:16:35.159Z,25.28
2022-08-17T19:21:47.536Z,25.26
2022-08-17T19:27:34.933Z,26.17
2022-08-17T19:32:44.978Z,26.50
2022-08-17T19:38:13.291Z,26.07
2022-08-17T19:43:30.710Z,25.58
2022-08-17T19:48:48.122Z,26.17
2022-08-17T19:54:15.693Z,26.82
2022-08-17T19:59:46.175Z,26.11
2022-08-17T20:04:52.807Z,25.67
2022-08-17T20:10:18.229Z,26.00
2022-08-17T20:15:29.685Z,25.47
2022-08-17T20:20:47.224Z,25.21
2022-08-17T20:26:04.767Z,25.19
2022-08-17T20:31:42.483Z,24.91
2022-08-17T20:37:22.778Z,25.39
2022-08-17T20:42:27.517Z,26.03
2022-08-17T20:47:55.176Z,26.31
2022-08-17T20:53:05.005Z,26.55
2022-08-17T20:58:17.276Z,26.67
2022-08-17T21:03:22.494Z,26.81
2022-08-17T21:08:30.968Z,26.45
2022-08-17T21:13:46.381Z,25.13
2022-08-17T21:19:49.003Z,24.83
2022-08-17T21:25:13.432Z,25.87
2022-08-17T21:30:26.613Z,26.32
2022-08-17T21:35:58.645Z,26.57
2022-08-17T21:41:01.485Z,26.20
2022-08-17T21:46:23.393Z,24.93
2022-08-17T21:51:29.517Z,24.70
2022-08-17T21:56:37.702Z,25.67
2022-08-17T22:01:51.356Z,26.08
2022-08-17T22:06:59.137Z,26.15
2022-08-17T22:12:14.495Z,26.35
2022-08-17T22:17:19.032Z,26.42
2022-08-17T22:22:26.026Z,25.95
2022-08-17T22:27:53.984Z,24.55
2022-08-17T22:33:01.259Z,24.21
2022-08-17T22:38:18.538Z,25.06
2022-08-17T22:43:25.892Z,25.50
2022-08-17T22:48:29.164Z,25.68
2022-08-17T22:53:49.749Z,24.69
2022-08-17T22:59:16.595Z,23.73
2022-08-17T23:04:37.799Z,24.08
2022-08-17T23:09:40.205Z,24.20
2022-08-17T23:14:46.209Z,23.59
2022-08-17T23:19:48.140Z,22.84
2022-08-17T23:24:50.084Z,22.09
2022-08-17T23:29:52.196Z,22.46
2022-08-17T23:34:55.010Z,23.41
2022-08-17T23:39:57.054Z,23.57
2022-08-17T23:44:59.071Z,23.08
2022-08-17T23:50:05.100Z,22.94
2022-08-17T23:55:08.097Z,22.83
